Time;durP1;ratioP1;P1;durP2;ratioP2;P2;SDS_P1;SDS_P2;PMS_P1;PMS_P2;Temp;Humidity;BMP_temperature;BMP_pressure;BME280_temperature;BME280_humidity;BME280_pressure;Samples;Min_cycle;Max_cycle;Signal;HPM_P1;HPM_P2
2021/04/24 00:00:12;;;;;;;1.67;0.97;;;;;;;2.95;78.77;101587.97;4991924;28;20181;-76
2021/04/24 00:02:42;;;;;;;2.13;1.10;;;;;;;2.99;78.67;101586.44;4991840;28;20696;-78
2021/04/24 00:05:15;;;;;;;1.03;0.50;;;;;;;2.99;78.40;101587.25;4990641;28;20201;-73
2021/04/24 00:07:40;;;;;;;6.13;0.57;;;;;;;3.00;78.22;101585.38;4991931;28;20209;-77
2021/04/24 00:10:07;;;;;;;0.13;0.13;;;;;;;3.02;78.06;101575.16;4991658;28;20602;-78
2021/04/24 00:12:32;;;;;;;1.37;1.27;;;;;;;3.02;78.18;101577.03;4991559;28;20300;-73
2021/04/24 00:14:58;;;;;;;4.13;0.73;;;;;;;2.97;78.24;101585.84;4991867;28;20259;-73
2021/04/24 00:17:24;;;;;;;0.73;0.73;;;;;;;2.89;78.70;101580.78;4991703;28;20173;-76
2021/04/24 00:19:50;;;;;;;4.63;2.63;;;;;;;2.77;79.37;101582.66;4991798;28;20534;-73
2021/04/24 00:22:15;;;;;;;1.73;1.03;;;;;;;2.69;80.12;101578.41;4991987;28;20180;-76
2021/04/24 00:24:40;;;;;;;0.87;0.40;;;;;;;2.55;80.47;101577.78;4991434;28;20259;-77
2021/04/24 00:27:06;;;;;;;1.00;1.00;;;;;;;2.45;80.98;101577.50;4991628;28;20184;-78
2021/04/24 00:29:33;;;;;;;2.00;1.10;;;;;;;2.32;81.23;101583.94;4991608;28;20683;-77
2021/04/24 00:31:58;;;;;;;1.30;0.63;;;;;;;2.25;81.71;101588.59;4991262;28;20213;-76
2021/04/24 00:34:24;;;;;;;2.33;0.57;;;;;;;2.24;81.92;101589.63;4991528;28;20672;-78
2021/04/24 00:36:49;;;;;;;1.13;1.03;;;;;;;2.15;82.14;101580.22;4991431;28;20177;-77
2021/04/24 00:39:14;;;;;;;1.63;0.80;;;;;;;2.24;82.39;101583.41;4991402;28;20243;-78
2021/04/24 00:41:40;;;;;;;0.23;0.23;;;;;;;2.17;82.25;101583.53;4991171;28;20201;-74
2021/04/24 00:44:05;;;;;;;0.23;0.20;;;;;;;2.15;82.58;101574.81;4991272;28;20179;-76
2021/04/24 00:46:31;;;;;;;0.20;0.20;;;;;;;2.16;82.47;101579.16;4991311;28;20256;-77
2021/04/24 00:48:56;;;;;;;0.47;0.47;;;;;;;2.08;82.67;101574.91;4991421;28;20181;-75
2021/04/24 00:51:21;;;;;;;0.17;0.17;;;;;;;2.05;83.10;101582.63;4991255;28;20284;-75
2021/04/24 00:53:47;;;;;;;0.20;0.20;;;;;;;2.11;83.13;101581.72;4991284;28;20283;-78
2021/04/24 00:56:12;;;;;;;0.27;0.27;;;;;;;2.16;82.94;101573.75;4991286;28;20192;-77
2021/04/24 00:58:38;;;;;;;0.83;0.63;;;;;;;2.15;82.81;101571.28;4991265;28;20216;-77
2021/04/24 01:01:04;;;;;;;1.73;1.03;;;;;;;2.09;83.34;101576.56;4991277;28;20181;-75
2021/04/24 01:03:30;;;;;;;0.80;0.80;;;;;;;2.07;83.76;101577.84;4991125;28;20181;-78
2021/04/24 01:05:56;;;;;;;2.83;1.80;;;;;;;2.01;83.70;101576.84;4991224;28;20265;-77
2021/04/24 01:08:21;;;;;;;1.73;0.53;;;;;;;1.99;83.82;101573.56;4990990;28;20268;-77
2021/04/24 01:10:46;;;;;;;1.47;1.37;;;;;;;1.99;84.73;101570.88;4991196;28;20173;-76
2021/04/24 01:13:14;;;;;;;1.40;1.07;;;;;;;2.05;84.40;101577.25;4991136;28;20177;-75
2021/04/24 01:15:40;;;;;;;0.97;0.97;;;;;;;1.93;84.11;101573.66;4991140;28;20177;-74
2021/04/24 01:18:10;;;;;;;2.37;1.57;;;;;;;1.90;85.00;101576.81;4991112;28;20425;-74
2021/04/24 01:20:38;;;;;;;1.33;1.33;;;;;;;1.87;84.90;101585.31;4990888;28;20424;-78
2021/04/24 01:23:06;;;;;;;5.67;0.93;;;;;;;1.77;84.99;101589.38;4990915;28;20420;-75
2021/04/24 01:25:32;;;;;;;1.17;1.03;;;;;;;1.68;85.89;101584.50;4990973;28;20269;-77
2021/04/24 01:28:00;;;;;;;0.70;0.70;;;;;;;1.74;86.50;101580.94;4991004;28;20491;-77
2021/04/24 01:30:29;;;;;;;1.73;1.20;;;;;;;1.72;86.30;101580.31;4991009;28;20177;-75
2021/04/24 01:32:55;;;;;;;1.17;1.17;;;;;;;1.70;86.48;101579.72;4990844;28;20522;-77
2021/04/24 01:35:25;;;;;;;1.50;1.40;;;;;;;1.70;86.79;101583.25;4991317;28;20424;-77
2021/04/24 01:37:51;;;;;;;0.87;0.87;;;;;;;1.71;86.95;101584.88;4991037;28;20416;-77
2021/04/24 01:40:17;;;;;;;7.30;1.40;;;;;;;1.69;87.25;101581.59;4990900;28;20193;-76
2021/04/24 01:42:43;;;;;;;0.93;0.93;;;;;;;1.75;87.58;101577.19;4990743;28;20611;-77
2021/04/24 01:45:11;;;;;;;0.77;0.77;;;;;;;1.79;87.02;101583.78;4991164;28;20660;-76
2021/04/24 01:47:39;;;;;;;3.10;1.33;;;;;;;1.82;87.45;101577.09;4990604;28;20416;-76
2021/04/24 01:50:41;;;;;;;3.60;0.90;;;;;;;1.88;87.37;101571.66;4990838;28;20440;-78
2021/04/24 01:53:10;;;;;;;0.77;0.77;;;;;;;1.81;87.63;101570.06;4988387;28;20443;-72
2021/04/24 01:55:37;;;;;;;2.97;0.87;;;;;;;1.82;87.94;101560.94;5022292;28;20593;-78
2021/04/24 01:58:08;;;;;;;0.53;0.40;;;;;;;1.95;88.17;101564.31;4994356;28;20256;-77
2021/04/24 02:00:40;;;;;;;0.73;0.73;;;;;;;2.05;87.78;101571.84;4994284;28;20178;-78
2021/04/24 02:03:11;;;;;;;0.77;0.77;;;;;;;2.16;87.62;101568.38;4994141;28;20192;-77
2021/04/24 02:05:37;;;;;;;0.83;0.80;;;;;;;2.21;87.41;101565.84;4994082;28;20185;-77
2021/04/24 02:08:09;;;;;;;5.83;1.37;;;;;;;2.24;87.25;101567.25;4993793;28;20178;-76
2021/04/24 02:10:36;;;;;;;5.03;1.90;;;;;;;2.24;87.04;101562.66;4994209;28;20656;-72
2021/04/24 02:13:10;;;;;;;2.03;1.43;;;;;;;2.20;87.12;101566.88;4995523;28;20212;-72
2021/04/24 02:15:36;;;;;;;12.27;0.90;;;;;;;2.22;87.26;101556.69;4995803;28;20939;-73
2021/04/24 02:18:01;;;;;;;2.73;0.97;;;;;;;2.20;87.30;101552.59;4994353;28;20420;-72
2021/04/24 02:20:27;;;;;;;0.90;0.80;;;;;;;2.17;87.33;101550.31;4993749;28;20188;-73
2021/04/24 02:22:53;;;;;;;1.70;1.13;;;;;;;2.18;87.55;101544.72;4993762;28;20187;-73
2021/04/24 02:25:20;;;;;;;0.83;0.63;;;;;;;2.15;87.80;101555.13;4993729;28;20183;-72
2021/04/24 02:27:46;;;;;;;4.67;2.50;;;;;;;2.13;88.22;101557.22;4993653;28;20173;-69
2021/04/24 02:30:16;;;;;;;0.77;0.73;;;;;;;2.13;88.13;101544.56;4993686;28;20475;-69
2021/04/24 02:32:41;;;;;;;3.50;3.13;;;;;;;2.15;88.51;101555.94;4993399;28;20212;-70
2021/04/24 02:35:09;;;;;;;0.40;0.40;;;;;;;2.17;88.39;101555.72;4993380;28;20421;-72
2021/04/24 02:37:35;;;;;;;5.37;1.30;;;;;;;2.16;88.47;101552.19;4993602;28;20212;-73
2021/04/24 02:40:01;;;;;;;0.50;0.30;;;;;;;2.20;88.45;101553.41;4993227;28;20241;-72
2021/04/24 02:42:28;;;;;;;2.27;1.43;;;;;;;2.22;88.42;101547.78;4993337;28;20272;-73
2021/04/24 02:44:55;;;;;;;1.17;0.97;;;;;;;2.22;88.08;101542.38;4993673;28;20182;-72
2021/04/24 02:47:22;;;;;;;0.30;0.30;;;;;;;2.16;88.77;101546.81;4993306;28;20173;-72
2021/04/24 02:49:48;;;;;;;10.50;0.67;;;;;;;2.13;88.83;101536.47;4993217;28;20781;-73
2021/04/24 02:52:13;;;;;;;5.40;1.73;;;;;;;2.09;88.73;101549.59;4993006;28;20550;-72
2021/04/24 02:54:39;;;;;;;1.70;1.60;;;;;;;2.13;89.08;101558.03;4993338;28;20173;-72
2021/04/24 02:57:05;;;;;;;0.70;0.70;;;;;;;2.10;89.03;101566.59;4993501;28;20170;-73
2021/04/24 02:59:31;;;;;;;0.27;0.27;;;;;;;2.11;89.00;101553.94;4993105;28;20189;-71
2021/04/24 03:01:57;;;;;;;5.80;1.53;;;;;;;2.10;89.03;101553.13;4991637;28;20181;-72
2021/04/24 03:04:22;;;;;;;1.23;1.07;;;;;;;2.05;89.02;101547.59;4992449;28;20196;-72
2021/04/24 03:06:48;;;;;;;4.17;3.17;;;;;;;1.93;89.20;101544.84;4992461;28;20185;-72
2021/04/24 03:09:14;;;;;;;9.93;2.33;;;;;;;1.90;89.37;101542.63;4992914;28;20210;-72
2021/04/24 03:11:40;;;;;;;1.80;1.70;;;;;;;1.88;89.49;101549.25;4992638;28;20573;-72
2021/04/24 03:14:06;;;;;;;2.20;2.10;;;;;;;1.89;89.54;101545.53;4992723;28;20211;-73
2021/04/24 03:16:32;;;;;;;1.10;1.10;;;;;;;1.82;89.75;101552.84;4992679;28;20971;-72
2021/04/24 03:18:58;;;;;;;1.60;1.43;;;;;;;1.79;89.87;101546.88;4992700;28;20425;-72
2021/04/24 03:21:25;;;;;;;5.10;1.47;;;;;;;1.83;90.30;101557.19;4992649;28;20519;-73
2021/04/24 03:23:51;;;;;;;6.27;3.50;;;;;;;1.87;90.31;101553.81;4992502;28;20256;-72
2021/04/24 03:26:17;;;;;;;1.70;1.60;;;;;;;1.92;90.01;101553.97;4992849;28;20428;-73
2021/04/24 03:28:42;;;;;;;1.93;1.23;;;;;;;1.94;90.25;101548.34;4992650;28;20455;-72
2021/04/24 03:31:08;;;;;;;1.83;1.73;;;;;;;2.00;90.22;101558.22;4992331;28;20299;-73
2021/04/24 03:33:34;;;;;;;3.30;2.53;;;;;;;2.03;90.19;101555.09;4992358;28;20187;-72
2021/04/24 03:35:59;;;;;;;1.77;1.67;;;;;;;2.11;90.12;101556.63;4992379;28;20573;-72
2021/04/24 03:38:25;;;;;;;4.10;1.10;;;;;;;2.16;90.12;101560.28;4992319;28;20220;-72
2021/04/24 03:40:50;;;;;;;5.47;1.87;;;;;;;2.17;90.01;101558.41;4992200;28;20221;-72
2021/04/24 03:43:15;;;;;;;2.77;0.97;;;;;;;2.23;90.24;101555.63;4992230;28;20177;-74
2021/04/24 03:45:41;;;;;;;25.33;1.30;;;;;;;2.33;90.05;101560.50;4992099;28;20216;-72
2021/04/24 03:48:06;;;;;;;2.30;1.80;;;;;;;2.44;90.13;101564.25;4992394;28;20228;-72
2021/04/24 03:50:32;;;;;;;2.60;2.30;;;;;;;2.54;89.76;101557.25;4992143;28;20188;-73
2021/04/24 03:52:57;;;;;;;1.63;1.53;;;;;;;2.63;89.53;101558.59;4991908;28;20245;-72
2021/04/24 03:55:24;;;;;;;1.20;1.13;;;;;;;2.71;89.08;101560.09;4992042;28;20252;-72
2021/04/24 03:57:50;;;;;;;2.83;2.53;;;;;;;2.76;88.94;101559.44;4991943;28;20174;-73
2021/04/24 04:00:19;;;;;;;3.80;3.50;;;;;;;2.79;88.63;101561.66;5006957;28;20178;-73
2021/04/24 04:02:45;;;;;;;3.50;2.03;;;;;;;2.83;88.53;101562.84;4991809;28;20510;-72
2021/04/24 04:05:12;;;;;;;1.53;1.43;;;;;;;2.88;88.46;101566.47;4991865;28;20181;-73
2021/04/24 04:07:37;;;;;;;1.70;1.60;;;;;;;2.91;88.36;101570.59;4990549;28;20280;-73
2021/04/24 04:10:03;;;;;;;1.37;1.17;;;;;;;2.95;88.49;101571.78;4991557;28;20260;-73
2021/04/24 04:12:28;;;;;;;2.13;1.87;;;;;;;2.99;88.61;101572.94;4991611;28;20201;-72
2021/04/24 04:14:53;;;;;;;1.33;1.23;;;;;;;2.98;88.29;101572.13;4991689;28;20201;-73
2021/04/24 04:17:18;;;;;;;2.10;2.00;;;;;;;3.00;88.50;101571.88;4991368;28;20699;-72
2021/04/24 04:19:44;;;;;;;6.03;2.07;;;;;;;3.06;88.57;101570.16;4991606;28;20173;-73
2021/04/24 04:22:09;;;;;;;2.73;1.30;;;;;;;3.06;88.68;101570.97;4991467;28;20177;-72
2021/04/24 04:24:34;;;;;;;6.77;1.57;;;;;;;3.10;88.63;101574.03;4991428;28;20188;-73
2021/04/24 04:27:00;;;;;;;2.40;2.20;;;;;;;3.10;88.85;101568.63;4991414;28;20177;-73
2021/04/24 04:29:25;;;;;;;0.90;0.90;;;;;;;3.12;88.92;101574.59;4991511;28;20653;-73
2021/04/24 04:31:51;;;;;;;3.47;1.90;;;;;;;3.11;88.61;101571.09;4991437;28;20290;-72
2021/04/24 04:34:16;;;;;;;1.60;1.50;;;;;;;3.16;89.25;101570.38;4991450;28;20173;-73
2021/04/24 04:36:41;;;;;;;1.97;1.80;;;;;;;3.15;89.20;101577.66;4991485;28;20523;-72
2021/04/24 04:39:06;;;;;;;1.53;1.27;;;;;;;3.19;89.31;101578.03;4991432;28;20181;-74
2021/04/24 04:41:32;;;;;;;3.90;2.63;;;;;;;3.21;89.36;101570.50;4991192;28;20617;-72
2021/04/24 04:43:57;;;;;;;2.80;1.57;;;;;;;3.27;89.72;101580.34;4991434;28;20850;-72
2021/04/24 04:46:22;;;;;;;2.90;2.70;;;;;;;3.32;89.72;101577.75;4991339;28;20657;-73
2021/04/24 04:48:48;;;;;;;7.17;1.90;;;;;;;3.35;89.62;101571.91;4991466;28;20695;-73
2021/04/24 04:51:13;;;;;;;1.00;0.93;;;;;;;3.36;89.55;101572.75;4991202;28;20203;-72
2021/04/24 04:53:39;;;;;;;5.97;2.30;;;;;;;3.35;90.30;101571.91;4991111;28;20674;-73
2021/04/24 04:56:05;;;;;;;1.80;1.70;;;;;;;3.35;90.14;101585.41;5006165;28;20668;-75
2021/04/24 04:58:30;;;;;;;6.07;2.20;;;;;;;3.37;90.37;101577.09;4991408;28;20206;-72
2021/04/24 05:00:58;;;;;;;19.13;1.90;;;;;;;3.38;90.38;101576.03;4991203;28;20177;-73
2021/04/24 05:03:23;;;;;;;0.70;0.70;;;;;;;3.36;90.33;101572.75;4991143;28;20169;-72
2021/04/24 05:05:48;;;;;;;2.87;1.97;;;;;;;3.37;90.71;101575.19;4991064;28;20185;-73
2021/04/24 05:08:14;;;;;;;2.90;2.43;;;;;;;3.36;90.75;101565.47;4990904;28;20169;-72
2021/04/24 05:10:39;;;;;;;3.67;2.27;;;;;;;3.38;90.74;101568.75;4991156;28;20522;-72
2021/04/24 05:13:05;;;;;;;1.77;1.67;;;;;;;3.41;90.96;101576.38;4991029;28;20207;-73
2021/04/24 05:15:30;;;;;;;3.23;2.20;;;;;;;3.40;91.18;101566.63;4991066;28;20169;-72
2021/04/24 05:17:55;;;;;;;6.03;2.50;;;;;;;3.42;91.09;101571.78;4991197;28;20173;-70
2021/04/24 05:20:20;;;;;;;1.43;1.33;;;;;;;3.45;91.02;101571.31;4991167;28;20177;-70
2021/04/24 05:22:47;;;;;;;2.83;1.13;;;;;;;3.51;91.13;101564.97;4991008;28;20621;-73
2021/04/24 05:25:14;;;;;;;2.87;2.33;;;;;;;3.57;90.73;101564.84;4991395;28;20188;-75
2021/04/24 05:27:44;;;;;;;3.13;2.10;;;;;;;3.67;90.67;101568.81;4991157;28;20224;-73
2021/04/24 05:30:11;;;;;;;2.23;2.03;;;;;;;3.73;90.25;101571.38;4994571;28;20212;-72
2021/04/24 05:32:36;;;;;;;0.80;0.80;;;;;;;3.77;89.94;101567.16;4994583;28;20219;-70
2021/04/24 05:35:03;;;;;;;6.10;1.70;;;;;;;3.79;89.93;101572.34;4994614;28;20272;-70
2021/04/24 05:37:28;;;;;;;1.90;1.70;;;;;;;3.83;90.01;101570.78;4994664;28;20786;-70
2021/04/24 05:39:56;;;;;;;2.77;2.23;;;;;;;3.86;89.56;101573.00;4994709;28;20180;-73
2021/04/24 05:42:21;;;;;;;3.23;2.17;;;;;;;3.88;89.59;101576.28;4994471;28;20177;-72
2021/04/24 05:44:46;;;;;;;2.13;1.93;;;;;;;3.93;89.91;101581.00;4994455;28;20187;-71
2021/04/24 05:47:11;;;;;;;2.83;2.63;;;;;;;4.01;89.90;101575.19;4994458;28;20209;-73
2021/04/24 05:49:37;;;;;;;2.37;2.07;;;;;;;4.02;89.87;101572.25;4993085;28;20197;-73
2021/04/24 05:52:05;;;;;;;6.87;2.33;;;;;;;4.08;89.89;101581.31;4993777;28;20232;-74
2021/04/24 05:54:31;;;;;;;3.70;2.17;;;;;;;4.10;90.03;101574.59;4994189;28;20178;-74
2021/04/24 05:56:56;;;;;;;4.13;2.80;;;;;;;4.20;89.89;101576.69;4994369;28;20409;-70
2021/04/24 05:59:22;;;;;;;2.20;1.90;;;;;;;4.30;90.05;101574.16;4993979;28;20192;-70
2021/04/24 06:01:47;;;;;;;2.87;2.63;;;;;;;4.43;89.64;101578.44;4994326;28;20264;-70
2021/04/24 06:04:13;;;;;;;6.23;2.77;;;;;;;4.46;89.19;101576.06;4994022;28;20713;-74
2021/04/24 06:06:38;;;;;;;2.33;2.00;;;;;;;4.47;89.23;101579.59;4994104;28;20181;-73
2021/04/24 06:09:04;;;;;;;5.33;1.77;;;;;;;4.52;89.11;101568.88;4993963;28;20228;-75
2021/04/24 06:11:30;;;;;;;1.83;1.73;;;;;;;4.60;89.09;101570.34;4993990;28;20204;-65
2021/04/24 06:13:55;;;;;;;3.20;2.40;;;;;;;4.65;88.85;101568.59;4994014;28;20169;-71
2021/04/24 06:16:20;;;;;;;11.27;2.87;;;;;;;4.72;88.62;101580.06;4993972;28;20169;-75
2021/04/24 06:18:46;;;;;;;4.93;2.97;;;;;;;4.74;87.45;101580.63;4994000;28;20177;-73
2021/04/24 06:21:11;;;;;;;6.63;2.60;;;;;;;4.78;87.26;101578.28;4993915;28;20193;-71
2021/04/24 06:23:36;;;;;;;2.07;1.87;;;;;;;4.81;87.14;101574.25;4993674;28;20200;-72
2021/04/24 06:26:02;;;;;;;2.13;0.97;;;;;;;4.85;86.81;101583.53;4993834;28;20185;-71
2021/04/24 06:28:27;;;;;;;3.13;2.20;;;;;;;4.87;87.16;101576.78;4993874;28;20200;-72
2021/04/24 06:30:52;;;;;;;3.70;2.03;;;;;;;4.95;87.00;101576.41;4993510;28;20177;-84
2021/04/24 06:33:19;;;;;;;3.17;2.87;;;;;;;5.05;86.38;101573.81;4992203;28;20193;-72
2021/04/24 06:35:44;;;;;;;3.07;2.10;;;;;;;5.15;86.26;101565.06;4993534;28;20188;-72
2021/04/24 06:38:10;;;;;;;3.37;3.07;;;;;;;5.18;85.01;101574.56;4993426;28;20186;-71
2021/04/24 06:40:35;;;;;;;7.43;3.10;;;;;;;5.26;85.36;101569.56;4993156;28;20252;-72
2021/04/24 06:43:00;;;;;;;3.83;3.53;;;;;;;5.40;84.63;101567.31;4993466;28;20181;-72
2021/04/24 06:45:26;;;;;;;3.67;2.37;;;;;;;5.55;84.41;101566.72;4993369;28;20201;-71
2021/04/24 06:47:51;;;;;;;5.20;2.37;;;;;;;5.61;83.05;101568.41;4993323;28;20205;-71
2021/04/24 06:50:18;;;;;;;2.50;2.03;;;;;;;5.64;82.93;101568.75;4993420;28;20180;-70
2021/04/24 06:52:43;;;;;;;1.67;1.53;;;;;;;5.64;81.88;101562.50;4993169;28;20209;-74
2021/04/24 06:55:10;;;;;;;1.73;1.63;;;;;;;5.69;82.23;101570.72;4993278;28;20232;-73
2021/04/24 06:57:36;;;;;;;4.67;2.20;;;;;;;5.76;82.36;101568.63;4993322;28;20196;-71
2021/04/24 07:00:02;;;;;;;2.10;1.63;;;;;;;5.93;82.32;101577.56;4993187;28;20255;-71
2021/04/24 07:02:27;;;;;;;3.30;2.33;;;;;;;6.05;81.49;101569.28;4993230;28;20181;-73
2021/04/24 07:04:52;;;;;;;1.70;1.07;;;;;;;6.04;80.24;101572.25;4993083;28;20236;-71
2021/04/24 07:07:18;;;;;;;2.30;1.80;;;;;;;5.93;80.60;101572.16;4992021;28;20189;-75
2021/04/24 07:09:43;;;;;;;3.77;1.27;;;;;;;6.02;80.98;101575.22;4992406;28;20247;-75
2021/04/24 07:12:09;;;;;;;2.73;1.70;;;;;;;6.08;79.86;101578.84;4992829;28;20291;-76
2021/04/24 07:14:34;;;;;;;1.93;1.77;;;;;;;6.10;78.94;101579.38;4992949;28;20220;-74
2021/04/24 07:17:00;;;;;;;2.90;1.70;;;;;;;6.11;78.97;101571.00;4992984;28;20636;-72
2021/04/24 07:19:25;;;;;;;1.97;1.60;;;;;;;6.11;78.53;101570.19;4992936;28;20185;-71
2021/04/24 07:21:50;;;;;;;1.70;1.60;;;;;;;6.13;78.66;101568.84;4992734;28;20209;-72
2021/04/24 07:24:16;;;;;;;1.43;1.33;;;;;;;6.33;79.85;101565.53;4992724;28;20231;-73
2021/04/24 07:26:41;;;;;;;0.83;0.83;;;;;;;6.47;77.13;101563.22;4993008;28;20181;-72
2021/04/24 07:29:07;;;;;;;2.07;1.40;;;;;;;6.59;76.59;101561.19;4992737;28;20173;-73
2021/04/24 07:31:33;;;;;;;1.47;1.37;;;;;;;6.78;77.46;101564.31;4992539;28;20673;-72
2021/04/24 07:33:59;;;;;;;2.00;1.67;;;;;;;7.01;76.80;101564.00;4992274;28;20189;-71
2021/04/24 07:36:26;;;;;;;2.70;1.47;;;;;;;7.06;73.55;101565.91;4992598;28;20177;-72
2021/04/24 07:38:51;;;;;;;1.33;1.23;;;;;;;6.99;74.15;101558.00;4992478;28;20182;-71
2021/04/24 07:41:17;;;;;;;1.50;1.40;;;;;;;6.92;73.08;101567.44;4992270;28;20189;-71
2021/04/24 07:43:42;;;;;;;1.00;0.90;;;;;;;6.82;74.20;101563.56;4992331;28;20243;-72
2021/04/24 07:46:07;;;;;;;1.50;1.40;;;;;;;6.90;74.91;101569.59;4992410;28;20181;-72
2021/04/24 07:48:33;;;;;;;1.17;1.07;;;;;;;6.95;74.37;101562.31;4992368;28;20216;-72
2021/04/24 07:50:58;;;;;;;4.23;1.40;;;;;;;6.91;74.29;101563.91;4991508;28;20188;-73
2021/04/24 07:53:23;;;;;;;3.33;1.63;;;;;;;6.81;74.26;101561.13;4992096;28;20347;-72
2021/04/24 07:55:49;;;;;;;2.83;2.60;;;;;;;6.86;74.38;101556.53;4992156;28;20174;-73
2021/04/24 07:58:15;;;;;;;0.97;0.90;;;;;;;6.75;72.31;101559.41;4992001;28;20187;-70
2021/04/24 08:00:41;;;;;;;5.70;1.93;;;;;;;6.73;72.44;101556.97;4992366;28;20177;-73
2021/04/24 08:03:06;;;;;;;2.30;1.73;;;;;;;6.89;72.65;101557.91;4991847;28;20629;-71
2021/04/24 08:05:32;;;;;;;2.13;1.93;;;;;;;7.12;70.31;101554.84;4991885;28;20173;-71
2021/04/24 08:07:58;;;;;;;1.37;1.27;;;;;;;7.38;71.19;101557.72;4991731;28;20196;-71
2021/04/24 08:10:23;;;;;;;6.83;1.77;;;;;;;7.58;70.99;101559.75;4991952;28;20188;-71
2021/04/24 08:12:49;;;;;;;2.03;1.60;;;;;;;7.74;68.48;101565.00;4991511;28;20205;-71
2021/04/24 08:15:15;;;;;;;2.93;2.73;;;;;;;7.76;65.82;101568.25;4991742;28;20691;-73
2021/04/24 08:17:41;;;;;;;7.03;2.10;;;;;;;7.55;64.72;101558.38;4992115;28;20276;-72
2021/04/24 08:20:07;;;;;;;1.17;1.13;;;;;;;7.50;65.40;101566.47;4991703;28;20188;-72
2021/04/24 08:22:32;;;;;;;2.67;2.47;;;;;;;7.63;66.72;101557.84;4991512;28;20213;-71
2021/04/24 08:24:58;;;;;;;1.87;1.67;;;;;;;7.74;66.33;101558.72;4994008;28;20875;-71
2021/04/24 08:27:23;;;;;;;1.50;1.40;;;;;;;7.95;65.44;101557.72;4991696;28;20180;-71
2021/04/24 08:29:48;;;;;;;1.00;0.97;;;;;;;8.04;63.30;101560.75;4991626;28;20189;-72
2021/04/24 08:32:14;;;;;;;2.33;2.10;;;;;;;7.96;63.80;101564.00;4991802;28;20209;-71
2021/04/24 08:34:39;;;;;;;1.97;1.87;;;;;;;7.81;64.89;101558.47;4992451;28;20177;-71
2021/04/24 08:37:05;;;;;;;2.33;2.10;;;;;;;7.85;65.77;101559.59;4994284;28;20571;-72
2021/04/24 08:39:30;;;;;;;1.00;0.90;;;;;;;7.81;65.40;101564.75;4992117;28;20173;-72
2021/04/24 08:41:57;;;;;;;0.93;0.93;;;;;;;7.71;65.76;101565.53;4990456;28;20224;-71
2021/04/24 08:44:22;;;;;;;1.00;0.90;;;;;;;7.64;67.15;101567.66;4989903;28;20181;-71
2021/04/24 08:46:50;;;;;;;2.50;2.30;;;;;;;7.71;67.83;101564.72;4991319;28;20181;-73
2021/04/24 08:49:17;;;;;;;4.73;1.63;;;;;;;7.65;64.50;101561.13;4991334;28;20211;-72
2021/04/24 08:51:44;;;;;;;3.73;3.00;;;;;;;7.76;65.51;101562.00;4991235;28;20220;-72
2021/04/24 08:54:09;;;;;;;2.07;1.90;;;;;;;7.80;64.53;101559.56;4991205;28;20184;-71
2021/04/24 08:56:35;;;;;;;2.43;2.23;;;;;;;8.02;65.54;101561.03;4991345;28;20260;-72
2021/04/24 08:59:00;;;;;;;2.37;1.77;;;;;;;7.86;66.17;101558.53;4990732;28;20173;-72
2021/04/24 09:01:26;;;;;;;2.17;2.00;;;;;;;7.67;67.89;101559.00;4990864;28;20208;-72
2021/04/24 09:03:52;;;;;;;2.53;1.90;;;;;;;7.95;67.12;101557.72;4994041;28;20177;-72
2021/04/24 09:06:21;;;;;;;3.73;3.37;;;;;;;8.07;68.66;101560.22;4994806;28;20169;-72
2021/04/24 09:08:55;;;;;;;5.97;2.00;;;;;;;8.15;67.71;101561.63;4994554;28;20184;-72
2021/04/24 09:11:20;;;;;;;3.03;2.03;;;;;;;8.24;66.63;101566.25;4993705;28;20572;-72
2021/04/24 09:13:59;;;;;;;2.47;2.00;;;;;;;8.23;65.04;101569.25;4994642;28;20185;-72
2021/04/24 09:16:26;;;;;;;1.70;1.57;;;;;;;8.14;64.97;101563.53;4993362;28;20184;-72
2021/04/24 09:18:51;;;;;;;1.60;1.50;;;;;;;8.28;65.41;101561.94;4994661;28;20196;-72
2021/04/24 09:21:23;;;;;;;3.30;2.17;;;;;;;8.38;65.92;101561.16;4994793;28;20185;-72
2021/04/24 09:23:50;;;;;;;1.80;1.70;;;;;;;8.27;64.82;101562.19;4994756;28;20649;-71
2021/04/24 09:26:17;;;;;;;1.93;1.50;;;;;;;8.32;64.10;101559.47;4994694;28;20208;-72
2021/04/24 09:28:45;;;;;;;1.57;1.47;;;;;;;8.42;61.76;101562.28;4994404;28;20177;-73
2021/04/24 09:31:14;;;;;;;7.20;2.43;;;;;;;8.29;64.95;101563.56;4994187;28;20652;-72
2021/04/24 09:33:41;;;;;;;2.27;1.73;;;;;;;8.20;65.89;101559.72;4994380;28;20535;-72
2021/04/24 09:36:08;;;;;;;1.17;1.07;;;;;;;8.01;65.78;101564.03;4994624;28;20182;-72
2021/04/24 09:38:39;;;;;;;3.27;2.77;;;;;;;7.94;67.48;101568.88;4994225;28;20182;-72
2021/04/24 09:41:09;;;;;;;1.70;1.53;;;;;;;7.74;67.05;101562.28;4994150;28;20196;-71
2021/04/24 09:43:56;;;;;;;1.67;1.57;;;;;;;7.73;67.07;101563.34;4993866;28;20173;-72
2021/04/24 09:46:51;;;;;;;2.60;2.37;;;;;;;7.61;67.93;101560.03;4992683;28;20180;-72
2021/04/24 09:49:22;;;;;;;0.97;0.90;;;;;;;7.65;68.10;101571.19;4992890;28;20292;-72
2021/04/24 09:51:51;;;;;;;5.90;1.83;;;;;;;7.64;67.89;101558.66;4992052;28;20205;-72
2021/04/24 09:54:19;;;;;;;1.23;1.07;;;;;;;7.71;68.15;101553.81;4988719;28;20181;-71
2021/04/24 09:57:07;;;;;;;4.40;2.77;;;;;;;7.84;68.77;101566.13;4994087;28;20278;-72
2021/04/24 09:59:50;;;;;;;2.50;2.20;;;;;;;7.98;68.07;101557.22;4992849;28;20201;-73
2021/04/24 10:02:27;;;;;;;2.77;2.53;;;;;;;8.03;68.21;101556.41;4988323;28;20235;-72
2021/04/24 10:05:12;;;;;;;2.03;1.93;;;;;;;8.25;67.99;101564.38;4994021;28;20193;-71
2021/04/24 10:07:56;;;;;;;1.93;1.83;;;;;;;8.34;66.46;101557.34;4993923;28;20170;-72
2021/04/24 10:10:30;;;;;;;2.37;1.97;;;;;;;8.27;66.92;101563.03;4994088;28;20530;-71
2021/04/24 10:13:01;;;;;;;2.30;2.13;;;;;;;8.09;65.17;101552.59;4993846;28;20587;-72
2021/04/24 10:15:41;;;;;;;2.00;1.80;;;;;;;8.26;66.77;101560.56;4993297;28;20174;-72
2021/04/24 10:18:08;;;;;;;2.00;1.87;;;;;;;8.35;63.73;101556.25;4993855;28;20220;-72
2021/04/24 10:20:34;;;;;;;1.70;1.60;;;;;;;8.45;61.47;101558.19;4992396;28;20173;-72
2021/04/24 10:23:07;;;;;;;2.37;1.53;;;;;;;8.56;60.47;101559.84;5000171;28;20186;-72
2021/04/24 10:25:34;;;;;;;0.67;0.67;;;;;;;8.40;61.01;101552.75;5009723;28;20181;-72
2021/04/24 10:27:59;;;;;;;2.63;1.53;;;;;;;8.29;60.53;101557.31;4993716;28;20179;-72
2021/04/24 10:30:26;;;;;;;0.30;0.30;;;;;;;8.22;59.77;101546.66;4993649;28;20483;-72
2021/04/24 10:32:52;;;;;;;3.00;1.50;;;;;;;8.41;58.67;101540.75;4993485;28;20209;-71
2021/04/24 10:35:19;;;;;;;3.93;1.50;;;;;;;8.85;60.07;101541.88;4993562;28;20173;-73
2021/04/24 10:37:48;;;;;;;1.90;1.63;;;;;;;9.07;56.66;101548.94;4993552;28;20197;-72
2021/04/24 10:40:15;;;;;;;1.63;1.13;;;;;;;9.09;57.75;101539.38;4993334;28;20240;-72
2021/04/24 10:42:49;;;;;;;1.00;0.50;;;;;;;8.98;58.33;101536.97;4993536;28;20641;-72
2021/04/24 10:45:35;;;;;;;1.70;1.33;;;;;;;8.81;58.37;101531.78;4993334;28;20169;-72
2021/04/24 10:48:00;;;;;;;1.83;1.50;;;;;;;8.81;57.79;101532.59;4993418;28;20177;-73
2021/04/24 10:50:38;;;;;;;1.27;1.13;;;;;;;8.80;59.35;101528.22;4993409;28;20175;-72
2021/04/24 10:53:23;;;;;;;1.63;1.43;;;;;;;9.15;58.29;101529.31;4993108;28;20600;-72
2021/04/24 10:55:49;;;;;;;1.43;1.33;;;;;;;9.59;58.14;101528.66;4993299;28;20180;-72
2021/04/24 10:58:17;;;;;;;2.77;1.50;;;;;;;9.73;55.75;101524.25;4993212;28;20176;-73
2021/04/24 11:00:44;;;;;;;2.37;1.30;;;;;;;9.94;55.56;101525.78;4992951;28;20173;-72
2021/04/24 11:03:10;;;;;;;1.47;1.37;;;;;;;9.69;53.22;101517.69;4992901;28;20177;-72
2021/04/24 11:05:46;;;;;;;1.70;1.57;;;;;;;9.79;55.38;101526.66;4992943;28;20178;-72
2021/04/24 11:08:14;;;;;;;1.37;0.90;;;;;;;9.50;55.14;101523.78;4993001;28;20177;-72
2021/04/24 11:11:01;;;;;;;2.10;1.80;;;;;;;9.41;56.81;101517.25;4992880;28;20265;-72
2021/04/24 11:13:35;;;;;;;0.73;0.73;;;;;;;9.22;56.40;101521.66;4992654;28;20216;-72
2021/04/24 11:16:05;;;;;;;2.13;2.00;;;;;;;9.14;58.37;101519.50;4992696;28;20221;-72
2021/04/24 11:18:33;;;;;;;1.50;1.40;;;;;;;9.33;59.23;101517.81;4993056;28;20169;-72
2021/04/24 11:21:05;;;;;;;1.40;1.30;;;;;;;9.76;56.99;101518.22;4992647;28;20224;-72
2021/04/24 11:23:30;;;;;;;1.37;1.27;;;;;;;9.81;54.45;101515.47;4991882;28;20165;-72
2021/04/24 11:25:57;;;;;;;1.03;1.00;;;;;;;10.14;55.05;101514.75;4990802;28;20169;-72
2021/04/24 11:28:22;;;;;;;1.30;1.17;;;;;;;10.20;52.14;101503.81;4991610;28;20232;-72
2021/04/24 11:30:58;;;;;;;1.03;1.00;;;;;;;10.40;53.17;101506.41;4991520;28;20409;-72
2021/04/24 11:33:44;;;;;;;1.83;1.73;;;;;;;10.16;54.51;101505.47;4991412;28;20196;-72